createdAt,value
2022-12-01T00:01:10.021Z,54.30
2022-12-01T00:03:36.972Z,53.95
2022-12-01T00:06:06.410Z,54.24
2022-12-01T00:08:33.487Z,54.42
2022-12-01T00:11:10.142Z,54.37
2022-12-01T00:13:36.702Z,53.54
2022-12-01T00:16:13.888Z,54.67
2022-12-01T00:18:40.828Z,53.91
2022-12-01T00:21:15.028Z,53.97
2022-12-01T00:23:50.702Z,53.78
2022-12-01T00:26:19.882Z,53.97
2022-12-01T00:28:50.460Z,54.09
2022-12-01T00:31:16.911Z,53.70
2022-12-01T00:33:43.476Z,54.28
2022-12-01T00:36:10.108Z,53.92
2022-12-01T00:38:37.791Z,54.06
2022-12-01T00:41:04.359Z,54.78
2022-12-01T00:43:31.256Z,54.55
2022-12-01T00:45:57.832Z,54.64
2022-12-01T00:48:25.729Z,54.71
2022-12-01T00:50:53.022Z,54.13
2022-12-01T00:53:19.695Z,54.35
2022-12-01T00:55:46.771Z,53.63
2022-12-01T00:58:13.223Z,54.17
2022-12-01T01:00:39.674Z,54.34
2022-12-01T01:03:08.797Z,54.32
2022-12-01T01:05:37.182Z,53.97
2022-12-01T01:08:10.517Z,54.19
2022-12-01T01:10:42.174Z,53.98
2022-12-01T01:13:09.123Z,54.14
2022-12-01T01:15:35.918Z,53.69
2022-12-01T01:18:04.754Z,54.41
2022-12-01T01:20:31.387Z,53.43
2022-12-01T01:22:57.811Z,53.68
2022-12-01T01:25:24.322Z,53.97
2022-12-01T01:27:51.224Z,53.40
2022-12-01T01:30:18.315Z,53.70
2022-12-01T01:32:44.677Z,53.82
2022-12-01T01:35:11.075Z,54.03
2022-12-01T01:37:37.476Z,53.81
2022-12-01T01:40:04.449Z,53.98
2022-12-01T01:42:31.340Z,53.36
2022-12-01T01:47:36.004Z,53.96
2022-12-01T01:50:10.370Z,53.85
2022-12-01T01:52:41.165Z,54.09
2022-12-01T01:55:08.442Z,54.21
2022-12-01T01:57:35.854Z,54.04
2022-12-01T02:00:07.826Z,54.09
2022-12-01T02:02:40.907Z,53.84
2022-12-01T02:05:11.928Z,53.94
2022-12-01T02:07:41.451Z,53.64
2022-12-01T02:10:10.878Z,53.95
2022-12-01T02:12:54.071Z,54.30
2022-12-01T02:15:45.165Z,54.66
2022-12-01T02:18:22.574Z,54.24
2022-12-01T02:21:21.806Z,54.55
2022-12-01T02:24:07.088Z,53.50
2022-12-01T02:26:41.090Z,53.97
2022-12-01T02:29:24.331Z,54.07
2022-12-01T02:32:12.218Z,54.26
2022-12-01T02:34:54.934Z,53.60
2022-12-01T02:37:47.181Z,53.67
2022-12-01T02:40:25.401Z,54.11
2022-12-01T02:43:03.169Z,53.42
2022-12-01T02:45:41.545Z,54.04
2022-12-01T02:48:19.367Z,53.61
2022-12-01T02:50:46.484Z,53.91
2022-12-01T02:53:15.621Z,54.24
2022-12-01T02:55:53.446Z,54.26
2022-12-01T02:58:20.832Z,53.52
2022-12-01T03:01:01.917Z,53.96
2022-12-01T03:03:45.015Z,54.01
2022-12-01T03:06:23.850Z,54.07
2022-12-01T03:09:10.166Z,53.70
2022-12-01T03:12:25.625Z,54.38
2022-12-01T03:15:12.576Z,54.20
2022-12-01T03:18:17.837Z,54.47
2022-12-01T03:21:06.855Z,54.11
2022-12-01T03:23:37.748Z,53.35
2022-12-01T03:26:09.658Z,53.91
2022-12-01T03:28:42.573Z,53.94
2022-12-01T03:31:14.948Z,54.22
2022-12-01T03:33:52.329Z,53.91
2022-12-01T03:36:31.762Z,54.21
2022-12-01T03:39:04.642Z,53.72
2022-12-01T03:41:39.550Z,53.69
2022-12-01T03:44:14.854Z,53.60
2022-12-01T03:46:52.085Z,54.16
2022-12-01T03:49:19.726Z,53.81
2022-12-01T03:52:20.160Z,53.72
2022-12-01T03:54:52.331Z,54.08
2022-12-01T03:57:29.579Z,54.03
2022-12-01T03:59:56.503Z,53.95
2022-12-01T04:02:27.586Z,54.02
2022-12-01T04:04:54.279Z,53.80
2022-12-01T04:07:21.862Z,53.91
2022-12-01T04:09:48.589Z,54.16
2022-12-01T04:15:03.619Z,54.11
2022-12-01T04:17:30.613Z,53.51
2022-12-01T04:22:24.670Z,53.54
2022-12-01T04:24:52.570Z,53.93
2022-12-01T04:27:19.941Z,53.84
2022-12-01T04:29:47.152Z,53.69
2022-12-01T04:32:14.080Z,54.05
2022-12-01T04:34:40.570Z,53.71
2022-12-01T04:37:07.603Z,53.81
2022-12-01T04:39:34.962Z,53.63
2022-12-01T04:42:01.443Z,53.95
2022-12-01T04:44:34.289Z,53.63
2022-12-01T04:47:01.441Z,53.52
2022-12-01T04:49:28.452Z,53.75
2022-12-01T04:51:54.885Z,53.76
2022-12-01T04:54:21.236Z,53.37
2022-12-01T04:56:47.586Z,53.09
2022-12-01T04:59:13.984Z,53.87
2022-12-01T05:01:40.934Z,53.74
2022-12-01T05:04:07.572Z,53.83
2022-12-01T05:06:35.820Z,54.26
2022-12-01T05:09:02.545Z,53.98
2022-12-01T05:11:30.245Z,54.21
2022-12-01T05:13:57.094Z,54.40
2022-12-01T05:16:26.408Z,53.99
2022-12-01T05:19:16.634Z,54.41
2022-12-01T05:21:45.005Z,54.20
2022-12-01T05:24:12.785Z,54.18
2022-12-01T05:26:40.202Z,53.71
2022-12-01T05:29:06.996Z,54.41
2022-12-01T05:31:33.439Z,54.11
2022-12-01T05:33:59.902Z,54.04
2022-12-01T05:36:26.562Z,54.22
2022-12-01T05:38:52.929Z,54.12
2022-12-01T05:41:19.463Z,54.17
2022-12-01T05:43:45.798Z,53.79
2022-12-01T05:46:12.229Z,53.58
2022-12-01T05:48:38.806Z,53.67
2022-12-01T05:51:13.476Z,54.22
2022-12-01T05:53:39.824Z,53.63
2022-12-01T05:56:07.096Z,54.44
2022-12-01T05:58:39.256Z,54.38
2022-12-01T06:01:06.406Z,54.00
2022-12-01T06:03:33.089Z,54.26
2022-12-01T06:06:00.922Z,54.05
2022-12-01T06:08:29.035Z,53.79
2022-12-01T06:10:55.360Z,53.88
2022-12-01T06:13:21.907Z,53.64
2022-12-01T06:15:59.564Z,54.05
2022-12-01T06:18:27.181Z,53.91
2022-12-01T06:20:53.506Z,53.99
2022-12-01T06:23:20.115Z,54.00
2022-12-01T06:25:46.511Z,53.65
2022-12-01T06:28:14.436Z,53.77
2022-12-01T06:30:40.805Z,54.55
2022-12-01T06:33:07.678Z,54.21
2022-12-01T06:35:35.017Z,54.08
2022-12-01T06:38:01.632Z,54.08
2022-12-01T06:40:28.522Z,53.83
2022-12-01T06:42:54.888Z,54.44
2022-12-01T06:45:21.242Z,54.50
2022-12-01T06:47:48.345Z,54.57
2022-12-01T06:50:14.844Z,54.38
2022-12-01T06:52:41.360Z,53.96
2022-12-01T06:55:08.078Z,54.71
2022-12-01T06:57:34.837Z,54.29
2022-12-01T07:00:01.642Z,54.47
2022-12-01T07:02:28.364Z,54.37
2022-12-01T07:04:55.725Z,54.48
2022-12-01T07:07:22.180Z,54.61
2022-12-01T07:09:49.031Z,54.08
2022-12-01T07:12:15.714Z,54.11
2022-12-01T07:14:42.906Z,54.47
2022-12-01T07:17:09.795Z,54.46
2022-12-01T07:19:36.243Z,54.17
2022-12-01T07:22:02.666Z,54.24
2022-12-01T07:24:29.742Z,54.29
2022-12-01T07:26:56.102Z,54.20
2022-12-01T07:29:22.611Z,54.33
2022-12-01T07:31:48.957Z,54.06
2022-12-01T07:34:15.364Z,54.08
2022-12-01T07:36:41.773Z,54.58
2022-12-01T07:39:09.022Z,54.42
2022-12-01T07:41:35.821Z,54.01
2022-12-01T07:44:03.256Z,54.25
2022-12-01T07:46:29.943Z,54.38
2022-12-01T07:48:57.079Z,55.01
2022-12-01T07:51:24.928Z,54.12
2022-12-01T07:53:52.497Z,54.56
2022-12-01T07:56:20.566Z,54.24
2022-12-01T07:58:47.255Z,54.70
2022-12-01T08:01:20.781Z,54.76
2022-12-01T08:03:52.935Z,54.33
2022-12-01T08:06:20.607Z,54.28
2022-12-01T08:08:50.083Z,54.22
2022-12-01T08:11:24.438Z,54.06
2022-12-01T08:13:52.190Z,54.15
2022-12-01T08:16:21.054Z,54.61
2022-12-01T08:18:49.257Z,54.54
2022-12-01T08:21:19.457Z,54.52
2022-12-01T08:23:46.337Z,54.30
2022-12-01T08:26:15.967Z,54.54
2022-12-01T08:28:43.513Z,54.10
2022-12-01T08:31:19.636Z,54.53
2022-12-01T08:33:47.106Z,54.23
2022-12-01T08:36:13.919Z,54.51
2022-12-01T08:38:43.524Z,54.40
2022-12-01T08:41:12.083Z,54.14
2022-12-01T08:43:57.189Z,54.23
2022-12-01T08:46:26.333Z,53.56
2022-12-01T08:48:54.908Z,54.18
2022-12-01T08:51:21.341Z,53.85
2022-12-01T08:53:50.636Z,53.66
2022-12-01T08:56:21.914Z,53.81
2022-12-01T08:58:51.202Z,53.86
2022-12-01T09:01:20.461Z,53.98
2022-12-01T09:03:46.853Z,53.56
2022-12-01T09:06:13.460Z,53.76
2022-12-01T09:08:40.213Z,54.13
2022-12-01T09:11:15.940Z,53.46
2022-12-01T09:13:43.589Z,53.51
2022-12-01T09:16:15.223Z,53.17
2022-12-01T09:18:43.140Z,53.37
2022-12-01T09:21:13.089Z,52.88
2022-12-01T09:23:39.884Z,52.74
2022-12-01T09:26:13.401Z,52.83
2022-12-01T09:28:40.496Z,53.22
2022-12-01T09:31:08.964Z,52.94
2022-12-01T09:33:35.681Z,52.94
2022-12-01T09:36:03.280Z,52.47
2022-12-01T09:38:31.857Z,52.58
2022-12-01T09:41:00.765Z,53.19
2022-12-01T09:43:37.797Z,52.86
2022-12-01T09:46:09.268Z,52.36
2022-12-01T09:48:44.880Z,53.12
2022-12-01T09:51:19.993Z,52.79
2022-12-01T09:53:50.234Z,52.62
2022-12-01T09:56:28.981Z,52.84
2022-12-01T09:58:59.317Z,52.52
2022-12-01T10:01:31.699Z,52.09
2022-12-01T10:04:06.175Z,51.81
2022-12-01T10:06:41.396Z,52.39
2022-12-01T10:09:29.989Z,52.55
2022-12-01T10:12:07.226Z,51.66
2022-12-01T10:14:37.837Z,51.79
2022-12-01T10:17:15.048Z,52.28
2022-12-01T10:19:52.627Z,52.29
2022-12-01T10:22:39.593Z,51.84
2022-12-01T10:25:21.725Z,51.68
2022-12-01T10:28:26.596Z,51.63
2022-12-01T10:30:56.037Z,51.46
2022-12-01T10:33:40.248Z,51.30
2022-12-01T10:36:08.918Z,52.25
2022-12-01T10:38:37.230Z,51.80
2022-12-01T10:41:05.651Z,52.12
2022-12-01T10:43:40.986Z,51.29
2022-12-01T10:46:25.999Z,51.35
2022-12-01T10:48:55.521Z,51.68
2022-12-01T10:51:22.687Z,51.27
2022-12-01T10:53:50.351Z,51.28
2022-12-01T10:56:19.812Z,51.44
2022-12-01T10:58:53.086Z,51.57
2022-12-01T11:01:35.722Z,51.09
2022-12-01T11:04:20.369Z,50.66
2022-12-01T11:06:51.258Z,50.96
2022-12-01T11:09:28.898Z,50.91
2022-12-01T11:12:04.858Z,50.88
2022-12-01T11:14:42.955Z,51.76
2022-12-01T11:17:26.969Z,50.41
2022-12-01T11:19:53.909Z,50.48
2022-12-01T11:22:24.464Z,50.38
2022-12-01T11:24:53.669Z,50.31
2022-12-01T11:27:22.925Z,50.11
2022-12-01T11:30:11.114Z,50.62
2022-12-01T11:32:39.922Z,50.26
2022-12-01T11:35:22.614Z,49.81
2022-12-01T11:38:27.240Z,50.23
2022-12-01T11:40:49.559Z,50.25
2022-12-01T11:43:26.656Z,49.83
2022-12-01T11:45:55.643Z,50.41
2022-12-01T11:48:27.673Z,50.34
2022-12-01T11:51:08.310Z,49.99
2022-12-01T11:53:37.551Z,50.76
2022-12-01T11:56:12.695Z,50.42
2022-12-01T11:58:39.066Z,49.99
2022-12-01T12:01:22.189Z,49.61
2022-12-01T12:04:03.640Z,49.59
2022-12-01T12:06:48.926Z,49.39
2022-12-01T12:09:44.940Z,49.34
2022-12-01T12:12:41.001Z,49.29
2022-12-01T12:15:26.446Z,49.13
2022-12-01T12:18:06.042Z,49.56
2022-12-01T12:20:41.590Z,49.91
2022-12-01T12:23:25.529Z,49.64
2022-12-01T12:26:15.789Z,49.03
2022-12-01T12:28:56.116Z,50.12
2022-12-01T12:31:32.346Z,49.64
2022-12-01T12:34:27.100Z,49.17
2022-12-01T12:37:02.621Z,49.35
2022-12-01T12:40:02.372Z,49.06
2022-12-01T12:42:37.703Z,49.06
2022-12-01T12:45:25.611Z,49.30
2022-12-01T12:48:24.271Z,49.43
2022-12-01T12:51:08.577Z,48.91
2022-12-01T12:53:52.605Z,48.76
2022-12-01T12:56:22.697Z,49.35
2022-12-01T12:59:00.543Z,48.44
2022-12-01T13:01:42.169Z,48.53
2022-12-01T13:04:47.837Z,48.57
2022-12-01T13:07:34.352Z,48.96
2022-12-01T13:10:12.042Z,48.91
2022-12-01T13:12:45.719Z,48.41
2022-12-01T13:15:17.882Z,48.64
2022-12-01T13:17:49.512Z,49.29
2022-12-01T13:20:19.314Z,49.72
2022-12-01T13:22:47.075Z,48.99
2022-12-01T13:25:23.220Z,49.54
2022-12-01T13:27:52.303Z,49.08
2022-12-01T13:30:25.008Z,48.84
2022-12-01T13:33:00.979Z,48.72
2022-12-01T13:35:33.828Z,48.91
2022-12-01T13:38:36.082Z,48.63
2022-12-01T13:41:22.533Z,48.47
2022-12-01T13:43:58.476Z,48.25
2022-12-01T13:46:45.397Z,49.23
2022-12-01T13:49:40.355Z,48.81
2022-12-01T13:52:22.150Z,48.08
2022-12-01T13:55:08.320Z,48.10
2022-12-01T13:57:35.956Z,49.45
2022-12-01T14:00:24.261Z,47.91
2022-12-01T14:03:09.733Z,49.12
2022-12-01T14:05:44.697Z,48.33
2022-12-01T14:08:22.867Z,48.38
2022-12-01T14:11:25.706Z,48.05
2022-12-01T14:13:58.449Z,48.52
2022-12-01T14:16:25.272Z,49.08
2022-12-01T14:18:58.392Z,49.20
2022-12-01T14:21:43.780Z,48.38
2022-12-01T14:24:22.220Z,49.29
2022-12-01T14:26:49.323Z,48.86
2022-12-01T14:29:26.598Z,48.61
2022-12-01T14:32:04.072Z,48.43
2022-12-01T14:34:32.345Z,48.76
2022-12-01T14:37:03.439Z,48.45
2022-12-01T14:39:40.207Z,48.73
2022-12-01T14:42:55.143Z,48.74
2022-12-01T14:45:47.736Z,48.37
2022-12-01T14:48:19.263Z,48.90
2022-12-01T14:50:53.101Z,49.13
2022-12-01T14:53:27.225Z,49.09
2022-12-01T14:55:57.495Z,49.08
2022-12-01T14:58:28.285Z,48.49
2022-12-01T15:01:06.661Z,49.09
2022-12-01T15:03:51.462Z,48.73
2022-12-01T15:06:26.467Z,48.88
2022-12-01T15:09:33.959Z,48.30
2022-12-01T15:12:03.551Z,49.09
2022-12-01T15:14:34.945Z,49.13
2022-12-01T15:17:05.865Z,48.92
2022-12-01T15:19:38.616Z,48.87
2022-12-01T15:22:12.594Z,49.08
2022-12-01T15:24:39.752Z,48.39
2022-12-01T15:27:39.521Z,48.97
2022-12-01T15:30:07.980Z,48.68
2022-12-01T15:32:38.198Z,48.82
2022-12-01T15:35:07.402Z,49.09
2022-12-01T15:37:43.339Z,48.25
2022-12-01T15:43:06.938Z,48.07
2022-12-01T15:46:12.422Z,48.14
2022-12-01T15:48:39.239Z,48.55
2022-12-01T15:51:13.934Z,48.49
2022-12-01T15:53:48.006Z,48.19
2022-12-01T15:56:14.797Z,48.77
2022-12-01T15:58:47.332Z,47.33
2022-12-01T16:01:20.652Z,47.84
2022-12-01T16:03:57.060Z,47.83
2022-12-01T16:06:30.248Z,48.42
2022-12-01T16:09:35.191Z,47.74
2022-12-01T16:12:14.655Z,47.56
2022-12-01T16:15:00.230Z,47.70
2022-12-01T16:17:42.932Z,47.71
2022-12-01T16:20:25.049Z,47.75
2022-12-01T16:22:58.663Z,48.06
2022-12-01T16:25:43.584Z,47.70
2022-12-01T16:28:22.257Z,47.60
2022-12-01T16:30:49.836Z,48.34
2022-12-01T16:33:19.673Z,47.88
2022-12-01T16:35:46.225Z,48.22
2022-12-01T16:38:22.496Z,48.42
2022-12-01T16:40:51.610Z,48.08
2022-12-01T16:43:22.202Z,48.09
2022-12-01T16:45:55.736Z,48.29
2022-12-01T16:48:22.322Z,48.38
2022-12-01T16:50:50.108Z,48.40
2022-12-01T16:53:17.631Z,48.21
2022-12-01T16:55:50.605Z,48.12
2022-12-01T16:58:17.370Z,48.21
2022-12-01T17:00:44.284Z,48.40
2022-12-01T17:03:18.046Z,48.26
2022-12-01T17:05:45.843Z,47.89
2022-12-01T17:08:12.457Z,48.28
2022-12-01T17:10:50.780Z,47.61
2022-12-01T17:13:17.988Z,47.66
2022-12-01T17:15:47.068Z,47.83
2022-12-01T17:18:16.261Z,47.53
2022-12-01T17:20:43.051Z,48.01
2022-12-01T17:23:10.042Z,47.93
2022-12-01T17:25:40.653Z,47.71
2022-12-01T17:28:07.331Z,48.26
2022-12-01T17:30:35.872Z,48.08
2022-12-01T17:33:02.588Z,47.88
2022-12-01T17:35:29.107Z,48.15
2022-12-01T17:37:55.409Z,47.94
2022-12-01T17:40:21.737Z,47.91
2022-12-01T17:42:51.112Z,47.99
2022-12-01T17:45:19.072Z,48.21
2022-12-01T17:47:45.624Z,48.25
2022-12-01T17:50:12.209Z,48.06
2022-12-01T17:52:38.704Z,48.94
2022-12-01T17:55:05.626Z,47.93
2022-12-01T17:57:32.442Z,47.95
2022-12-01T17:59:58.806Z,48.33
2022-12-01T18:02:25.289Z,47.91
2022-12-01T18:04:54.770Z,48.29
2022-12-01T18:07:21.738Z,48.43
2022-12-01T18:09:48.145Z,47.89
2022-12-01T18:12:14.529Z,48.28
2022-12-01T18:14:41.933Z,48.40
2022-12-01T18:17:09.934Z,48.50
2022-12-01T18:19:36.423Z,48.09
2022-12-01T18:22:02.782Z,48.38
2022-12-01T18:24:29.115Z,48.27
2022-12-01T18:26:56.416Z,47.95
2022-12-01T18:29:26.146Z,48.26
2022-12-01T18:31:58.987Z,48.36
2022-12-01T18:34:29.340Z,48.43
2022-12-01T18:36:55.959Z,47.91
2022-12-01T18:39:22.470Z,48.50
2022-12-01T18:41:50.552Z,48.49
2022-12-01T18:44:17.055Z,48.46
2022-12-01T18:46:43.706Z,48.49
2022-12-01T18:49:11.570Z,48.10
2022-12-01T18:51:39.412Z,48.20
2022-12-01T18:54:07.812Z,48.16
2022-12-01T18:56:34.729Z,48.23
2022-12-01T18:59:05.060Z,48.46
2022-12-01T19:01:41.041Z,47.74
2022-12-01T19:04:08.598Z,47.88
2022-12-01T19:06:36.531Z,48.39
2022-12-01T19:09:06.979Z,48.26
2022-12-01T19:11:33.538Z,48.50
2022-12-01T19:14:00.102Z,48.70
2022-12-01T19:16:26.872Z,48.50
2022-12-01T19:18:53.481Z,48.32
2022-12-01T19:21:20.514Z,48.41
2022-12-01T19:23:49.258Z,48.06
2022-12-01T19:26:18.698Z,48.07
2022-12-01T19:28:45.955Z,48.38
2022-12-01T19:31:19.386Z,47.71
2022-12-01T19:33:46.558Z,48.39
2022-12-01T19:36:15.984Z,48.10
2022-12-01T19:38:42.660Z,48.12
2022-12-01T19:41:09.557Z,48.03
2022-12-01T19:43:37.676Z,48.09
2022-12-01T19:46:09.701Z,48.18
2022-12-01T19:48:36.905Z,47.87
2022-12-01T19:51:03.992Z,47.77
2022-12-01T19:53:33.833Z,47.91
2022-12-01T19:56:03.001Z,48.33
2022-12-01T19:58:31.954Z,48.40
2022-12-01T20:01:07.026Z,48.10
2022-12-01T20:03:33.787Z,48.64
2022-12-01T20:06:02.593Z,48.48
2022-12-01T20:08:29.002Z,48.59
2022-12-01T20:10:55.411Z,48.19
2022-12-01T20:13:23.510Z,48.13
2022-12-01T20:15:50.030Z,48.58
2022-12-01T20:18:16.530Z,48.32
2022-12-01T20:20:42.937Z,48.33
2022-12-01T20:23:10.794Z,48.63
2022-12-01T20:25:37.373Z,48.16
2022-12-01T20:28:03.838Z,48.25
2022-12-01T20:30:30.333Z,48.36
2022-12-01T20:32:57.015Z,48.28
2022-12-01T20:35:23.597Z,48.02
2022-12-01T20:37:52.046Z,48.34
2022-12-01T20:40:18.660Z,48.22
2022-12-01T20:42:46.858Z,48.06
2022-12-01T20:45:13.355Z,48.26
2022-12-01T20:47:40.553Z,48.17
2022-12-01T20:50:07.314Z,47.75
2022-12-01T20:52:34.126Z,48.32
2022-12-01T20:55:00.430Z,48.27
2022-12-01T20:57:27.821Z,48.04
2022-12-01T20:59:54.336Z,47.93
2022-12-01T21:02:20.928Z,48.33
2022-12-01T21:04:47.435Z,48.26
2022-12-01T21:07:13.805Z,47.80
2022-12-01T21:09:40.260Z,47.74
2022-12-01T21:12:34.884Z,47.51
2022-12-01T21:15:23.471Z,47.80
2022-12-01T21:17:56.251Z,47.82
2022-12-01T21:20:29.929Z,47.39
2022-12-01T21:23:18.076Z,47.75
2022-12-01T21:25:44.894Z,47.78
2022-12-01T21:28:23.794Z,47.95
2022-12-01T21:30:59.682Z,48.19
2022-12-01T21:33:27.664Z,47.76
2022-12-01T21:35:55.944Z,48.17
2022-12-01T21:38:22.792Z,48.16
2022-12-01T21:40:49.285Z,48.12
2022-12-01T21:43:24.630Z,47.97
2022-12-01T21:45:57.885Z,47.52
2022-12-01T21:48:24.750Z,47.90
2022-12-01T21:51:00.410Z,47.82
2022-12-01T21:53:32.204Z,48.30
2022-12-01T21:55:58.589Z,48.12
2022-12-01T21:58:28.914Z,47.88
2022-12-01T22:00:58.228Z,47.66
2022-12-01T22:03:32.295Z,47.64
2022-12-01T22:06:28.385Z,48.10
2022-12-01T22:08:50.528Z,48.21
2022-12-01T22:11:25.302Z,48.12
2022-12-01T22:13:54.654Z,47.41
2022-12-01T22:16:38.161Z,47.95
2022-12-01T22:19:22.909Z,47.68
2022-12-01T22:21:59.662Z,47.66
2022-12-01T22:24:28.419Z,48.44
2022-12-01T22:27:26.965Z,47.68
2022-12-01T22:30:02.844Z,47.82
2022-12-01T22:32:32.181Z,48.10
2022-12-01T22:35:18.687Z,48.01
2022-12-01T22:37:48.383Z,48.19
2022-12-01T22:40:41.126Z,47.55
2022-12-01T22:43:17.046Z,47.81
2022-12-01T22:45:45.349Z,48.34
2022-12-01T22:48:44.577Z,47.83
2022-12-01T22:51:14.270Z,48.10
2022-12-01T22:53:44.315Z,47.96
2022-12-01T22:56:26.118Z,48.20
2022-12-01T22:58:52.773Z,47.95
2022-12-01T23:01:30.876Z,47.66
2022-12-01T23:04:20.148Z,47.69
2022-12-01T23:06:56.209Z,48.19
2022-12-01T23:09:26.645Z,47.99
2022-12-01T23:12:13.321Z,48.23
2022-12-01T23:14:49.579Z,47.43
2022-12-01T23:17:20.918Z,48.14
2022-12-01T23:19:49.925Z,47.97
2022-12-01T23:22:16.920Z,47.54
2022-12-01T23:24:43.807Z,48.04
2022-12-01T23:27:10.357Z,47.64
2022-12-01T23:29:37.994Z,48.17
2022-12-01T23:32:04.521Z,47.86
2022-12-01T23:34:30.892Z,48.07
2022-12-01T23:36:57.433Z,48.16
2022-12-01T23:39:31.136Z,48.20
2022-12-01T23:41:57.537Z,48.20
2022-12-01T23:44:38.575Z,48.39
2022-12-01T23:47:18.352Z,48.41
2022-12-01T23:49:47.842Z,48.51
2022-12-01T23:52:19.653Z,47.96
2022-12-01T23:54:47.012Z,48.20
2022-12-01T23:57:23.379Z,48.23
2022-12-01T23:59:53.512Z,48.83
